createdAt,value
2017-11-08T00:00:58.745Z,98011.69
2017-11-08T00:03:27.757Z,98009.66
2017-11-08T00:05:56.009Z,98012.53
2017-11-08T00:08:25.023Z,98017.19
2017-11-08T00:10:53.274Z,98009.94
2017-11-08T00:13:21.515Z,98005.27
2017-11-08T00:15:52.567Z,98005.28
2017-11-08T00:18:20.807Z,98007.05
2017-11-08T00:20:49.045Z,98012.13
2017-11-08T00:23:19.858Z,98015.43
2017-11-08T00:25:48.101Z,98017.57
2017-11-08T00:28:16.347Z,98007.39
2017-11-08T00:30:45.365Z,98007.70
2017-11-08T00:33:13.601Z,98009.03
2017-11-08T00:35:42.622Z,98018.33
2017-11-08T00:38:10.871Z,98016.64
2017-11-08T00:40:39.880Z,98019.16
2017-11-08T00:43:08.877Z,98017.50
2017-11-08T00:45:37.132Z,98017.55
2017-11-08T00:48:05.372Z,98006.98
2017-11-08T00:50:33.623Z,97992.95
2017-11-08T00:53:02.647Z,98007.39
2017-11-08T00:55:30.905Z,97996.02
2017-11-08T00:58:04.574Z,97998.09
2017-11-08T01:00:34.718Z,97987.92
2017-11-08T01:03:02.958Z,98003.87
2017-11-08T01:05:31.968Z,97983.63
2017-11-08T01:08:00.208Z,97984.83
2017-11-08T01:10:28.448Z,97989.57
2017-11-08T01:12:56.694Z,97981.37
2017-11-08T01:15:24.942Z,97994.51
2017-11-08T01:17:53.957Z,98005.91
2017-11-08T01:20:22.210Z,97991.96
2017-11-08T01:22:50.465Z,97999.92
2017-11-08T01:25:18.722Z,98008.81
2017-11-08T01:27:47.015Z,98000.41
2017-11-08T01:30:15.277Z,98000.36
2017-11-08T01:32:43.584Z,98001.98
2017-11-08T01:35:18.588Z,97993.52
2017-11-08T01:37:46.862Z,97997.72
2017-11-08T01:40:19.694Z,97997.32
2017-11-08T01:42:47.962Z,98001.61
2017-11-08T01:45:16.207Z,97985.46
2017-11-08T01:47:44.482Z,97982.39
2017-11-08T01:50:12.748Z,97971.28
2017-11-08T01:52:41.003Z,97965.71
2017-11-08T01:55:09.263Z,97963.18
2017-11-08T01:57:37.502Z,97964.38
2017-11-08T02:00:05.760Z,97966.06
2017-11-08T02:02:34.801Z,97968.20
2017-11-08T02:05:03.820Z,97971.66
2017-11-08T02:07:32.077Z,97972.08
2017-11-08T02:10:00.335Z,97973.84
2017-11-08T02:12:29.337Z,97972.09
2017-11-08T02:14:57.590Z,97984.42
2017-11-08T02:17:25.853Z,97982.39
2017-11-08T02:19:54.106Z,97979.48
2017-11-08T02:22:22.368Z,97983.70
2017-11-08T02:25:05.090Z,97978.58
2017-11-08T02:27:34.118Z,97976.88
2017-11-08T02:30:02.374Z,97971.85
2017-11-08T02:32:30.610Z,97966.80
2017-11-08T02:34:58.862Z,97964.60
2017-11-08T02:37:27.809Z,97972.64
2017-11-08T02:39:56.052Z,97964.96
2017-11-08T02:42:24.306Z,97961.20
2017-11-08T02:44:52.547Z,97968.33
2017-11-08T02:47:20.795Z,97969.18
2017-11-08T02:49:49.048Z,97972.23
2017-11-08T02:52:18.064Z,97971.42
2017-11-08T02:54:46.309Z,97975.66
2017-11-08T02:57:15.323Z,97974.84
2017-11-08T02:59:43.571Z,97966.02
2017-11-08T03:02:12.596Z,97966.49
2017-11-08T03:04:46.695Z,97965.22
2017-11-08T03:07:15.716Z,97962.19
2017-11-08T03:09:43.952Z,97954.23
2017-11-08T03:12:12.988Z,97956.70
2017-11-08T03:14:41.232Z,97952.09
2017-11-08T03:17:10.250Z,97955.41
2017-11-08T03:19:38.490Z,97958.03
2017-11-08T03:22:06.754Z,97954.70
2017-11-08T03:24:35.017Z,97953.86
2017-11-08T03:27:03.266Z,97961.48
2017-11-08T03:29:31.501Z,97961.02
2017-11-08T03:32:00.517Z,97962.34
2017-11-08T03:34:28.761Z,97955.55
2017-11-08T03:36:57.018Z,97959.73
2017-11-08T03:39:25.265Z,97967.78
2017-11-08T03:41:53.512Z,97967.77
2017-11-08T03:44:22.525Z,97966.94
2017-11-08T03:46:50.765Z,97975.88
2017-11-08T03:49:19.777Z,97981.36
2017-11-08T03:51:48.030Z,97986.80
2017-11-08T03:54:16.266Z,97981.30
2017-11-08T03:56:44.513Z,97982.03
2017-11-08T03:59:12.749Z,97979.47
2017-11-08T04:01:41.003Z,97979.53
2017-11-08T04:04:09.247Z,97976.08
2017-11-08T04:06:37.500Z,97972.28
2017-11-08T04:09:05.742Z,97967.27
2017-11-08T04:11:33.985Z,97964.67
2017-11-08T04:14:02.230Z,97967.20
2017-11-08T04:16:30.477Z,97971.50
2017-11-08T04:18:58.725Z,97981.22
2017-11-08T04:21:27.737Z,97976.10
2017-11-08T04:23:55.975Z,97973.55
2017-11-08T04:26:24.217Z,97963.81
2017-11-08T04:28:53.231Z,97959.29
2017-11-08T04:31:21.473Z,97959.32
2017-11-08T04:33:50.484Z,97959.78
2017-11-08T04:36:18.726Z,97963.23
2017-11-08T04:38:46.978Z,97965.31
2017-11-08T04:41:15.223Z,97964.98
2017-11-08T04:43:43.477Z,97965.86
2017-11-08T04:46:12.482Z,97962.52
2017-11-08T04:48:40.731Z,97968.89
2017-11-08T04:51:09.740Z,97970.92
2017-11-08T04:53:37.994Z,97976.13
2017-11-08T04:56:06.241Z,97978.69
2017-11-08T04:58:34.490Z,97984.60
2017-11-08T05:01:02.741Z,97986.34
2017-11-08T05:03:31.756Z,97974.39
2017-11-08T05:05:59.993Z,97977.82
2017-11-08T05:08:29.013Z,97971.00
2017-11-08T05:10:57.254Z,97971.30
2017-11-08T05:13:25.504Z,97980.30
2017-11-08T05:15:53.745Z,97989.57
2017-11-08T05:18:21.995Z,97988.41
2017-11-08T05:20:51.008Z,97986.67
2017-11-08T05:23:19.261Z,97987.02
2017-11-08T05:25:48.275Z,97984.89
2017-11-08T05:28:16.530Z,97985.34
2017-11-08T05:30:45.534Z,97986.09
2017-11-08T05:33:13.787Z,97990.73
2017-11-08T05:35:42.022Z,97986.47
2017-11-08T05:38:10.269Z,97988.20
2017-11-08T05:40:38.513Z,97997.53
2017-11-08T05:43:07.529Z,98001.27
2017-11-08T05:45:35.771Z,97996.67
2017-11-08T05:48:04.018Z,98002.20
2017-11-08T05:50:32.257Z,97997.47
2017-11-08T05:53:00.513Z,98004.72
2017-11-08T05:55:29.518Z,98003.47
2017-11-08T05:57:58.539Z,98003.93
2017-11-08T06:00:26.770Z,98000.68
2017-11-08T06:02:55.790Z,98000.75
2017-11-08T06:05:24.031Z,98001.10
2017-11-08T06:07:52.286Z,98003.72
2017-11-08T06:10:20.533Z,98004.02
2017-11-08T06:12:48.782Z,98003.24
2017-11-08T06:15:17.800Z,97998.23
2017-11-08T06:17:46.054Z,98006.69
2017-11-08T06:20:15.058Z,98008.85
2017-11-08T06:22:43.335Z,98015.98
2017-11-08T06:25:11.574Z,98024.53
2017-11-08T06:27:39.814Z,98016.54
2017-11-08T06:30:08.062Z,98026.23
2017-11-08T06:32:36.311Z,98028.81
2017-11-08T06:35:05.313Z,98038.98
2017-11-08T06:37:33.592Z,98040.33
2017-11-08T06:40:02.598Z,98041.25
2017-11-08T06:42:30.841Z,98038.72
2017-11-08T06:44:59.862Z,98046.41
2017-11-08T06:47:28.110Z,98048.15
2017-11-08T06:52:23.889Z,98049.00
2017-11-08T06:54:52.160Z,98045.91
2017-11-08T06:57:22.305Z,98047.66
2017-11-08T06:59:50.550Z,98046.39
2017-11-08T07:02:18.807Z,98044.88
2017-11-08T07:04:47.817Z,98043.55
2017-11-08T07:07:16.065Z,98047.29
2017-11-08T07:09:45.079Z,98049.37
2017-11-08T07:12:13.329Z,98050.69
2017-11-08T07:14:42.340Z,98049.47
2017-11-08T07:17:10.599Z,98055.91
2017-11-08T07:19:39.601Z,98054.14
2017-11-08T07:22:08.655Z,98063.81
2017-11-08T07:24:36.905Z,98065.50
2017-11-08T07:27:05.150Z,98071.08
2017-11-08T07:29:34.162Z,98064.73
2017-11-08T07:32:02.411Z,98066.80
2017-11-08T07:34:31.418Z,98059.24
2017-11-08T07:36:59.686Z,98062.12
2017-11-08T07:39:28.693Z,98065.53
2017-11-08T07:41:56.943Z,98071.08
2017-11-08T07:44:25.958Z,98072.66
2017-11-08T07:46:54.208Z,98071.86
2017-11-08T07:49:23.219Z,98067.70
2017-11-08T07:51:52.221Z,98061.77
2017-11-08T07:54:20.472Z,98061.84
2017-11-08T07:56:55.793Z,98064.37
2017-11-08T07:59:25.864Z,98072.06
2017-11-08T08:01:54.103Z,98071.34
2017-11-08T08:04:23.116Z,98069.22
2017-11-08T08:06:51.359Z,98065.00
2017-11-08T08:09:19.609Z,98057.00
2017-11-08T08:11:47.854Z,98064.31
2017-11-08T08:14:16.106Z,98057.91
2017-11-08T08:16:45.118Z,98060.83
2017-11-08T08:19:19.170Z,98065.53
2017-11-08T08:21:47.410Z,98069.84
2017-11-08T08:24:15.661Z,98068.70
2017-11-08T08:26:50.149Z,98067.79
2017-11-08T08:29:18.383Z,98069.89
2017-11-08T08:31:46.634Z,98068.13
2017-11-08T08:34:15.643Z,98073.59
2017-11-08T08:36:43.892Z,98077.57
2017-11-08T08:39:12.897Z,98075.40
2017-11-08T08:41:41.920Z,98072.97
2017-11-08T08:44:10.154Z,98077.27
2017-11-08T08:46:39.170Z,98083.10
2017-11-08T08:49:07.414Z,98085.28
2017-11-08T08:51:35.666Z,98085.63
2017-11-08T08:54:03.911Z,98084.42
2017-11-08T08:56:32.166Z,98084.07
2017-11-08T08:59:00.407Z,98091.27
2017-11-08T09:01:28.662Z,98091.31
2017-11-08T09:03:56.909Z,98100.10
2017-11-08T09:06:25.158Z,98103.13
2017-11-08T09:08:54.173Z,98104.82
2017-11-08T09:11:22.423Z,98102.83
2017-11-08T09:13:51.434Z,98102.04
2017-11-08T09:16:19.681Z,98109.72
2017-11-08T09:18:48.689Z,98118.09
2017-11-08T09:21:17.707Z,98122.70
2017-11-08T09:23:45.968Z,98128.13
2017-11-08T09:26:15.939Z,98127.41
2017-11-08T09:28:44.192Z,98127.59
2017-11-08T09:31:17.892Z,98130.02
2017-11-08T09:33:46.138Z,98122.56
2017-11-08T09:36:15.203Z,98121.59
2017-11-08T09:38:43.444Z,98125.05
2017-11-08T09:41:11.687Z,98132.80
2017-11-08T09:43:39.934Z,98130.72
2017-11-08T09:46:08.942Z,98130.57
2017-11-08T09:48:39.866Z,98132.80
2017-11-08T09:51:08.878Z,98134.20
2017-11-08T09:53:37.145Z,98134.69
2017-11-08T09:56:08.136Z,98127.48
2017-11-08T09:58:36.394Z,98134.27
2017-11-08T10:04:06.751Z,98139.16
2017-11-08T10:06:35.008Z,98141.75
2017-11-08T10:09:03.284Z,98145.41
2017-11-08T10:11:34.203Z,98147.09
2017-11-08T10:14:02.483Z,98143.35
2017-11-08T10:16:31.488Z,98146.74
2017-11-08T10:19:02.107Z,98146.18
2017-11-08T10:21:30.358Z,98144.79
2017-11-08T10:23:58.590Z,98144.25
2017-11-08T10:26:27.004Z,98149.94
2017-11-08T10:28:55.250Z,98147.35
2017-11-08T10:31:23.493Z,98147.88
2017-11-08T10:33:51.733Z,98142.81
2017-11-08T10:36:20.757Z,98140.75
2017-11-08T10:38:49.011Z,98138.88
2017-11-08T10:41:18.029Z,98143.04
2017-11-08T10:43:46.237Z,98145.09
2017-11-08T10:46:15.249Z,98140.02
2017-11-08T10:48:43.485Z,98145.52
2017-11-08T10:51:13.566Z,98151.83
2017-11-08T10:53:41.805Z,98153.09
2017-11-08T10:56:10.822Z,98151.76
2017-11-08T10:58:39.063Z,98152.23
2017-11-08T11:01:08.084Z,98146.61
2017-11-08T11:03:36.322Z,98146.80
2017-11-08T11:06:04.579Z,98144.25
2017-11-08T11:08:32.815Z,98145.52
2017-11-08T11:11:01.078Z,98146.55
2017-11-08T11:13:30.076Z,98143.45
2017-11-08T11:15:58.330Z,98141.29
2017-11-08T11:18:27.338Z,98144.73
2017-11-08T11:20:56.381Z,98140.13
2017-11-08T11:23:24.626Z,98145.23
2017-11-08T11:25:52.875Z,98139.29
2017-11-08T11:28:21.895Z,98141.47
2017-11-08T11:30:52.030Z,98140.98
2017-11-08T11:33:20.273Z,98147.84
2017-11-08T11:35:49.294Z,98146.18
2017-11-08T11:38:19.320Z,98151.20
2017-11-08T11:40:47.574Z,98153.34
2017-11-08T11:43:15.829Z,98146.98
2017-11-08T11:45:44.858Z,98152.55
2017-11-08T11:48:16.845Z,98146.14
2017-11-08T11:50:45.101Z,98154.61
2017-11-08T11:53:13.350Z,98161.34
2017-11-08T11:55:42.350Z,98163.87
2017-11-08T11:58:10.609Z,98167.64
2017-11-08T12:00:39.611Z,98164.28
2017-11-08T12:03:07.857Z,98169.27
2017-11-08T12:05:36.107Z,98167.64
2017-11-08T12:08:04.355Z,98173.63
2017-11-08T12:10:32.605Z,98174.03
2017-11-08T12:13:01.625Z,98179.56
2017-11-08T12:17:58.178Z,98182.52
2017-11-08T12:20:29.323Z,98187.13
2017-11-08T12:22:57.582Z,98194.06
2017-11-08T12:25:26.580Z,98187.15
2017-11-08T12:27:54.830Z,98198.03
2017-11-08T12:30:23.846Z,98197.09
2017-11-08T12:32:52.098Z,98192.84
2017-11-08T12:35:21.109Z,98186.14
2017-11-08T12:37:50.119Z,98182.47
2017-11-08T12:40:21.256Z,98188.77
2017-11-08T12:42:50.253Z,98184.59
2017-11-08T12:45:18.510Z,98187.80
2017-11-08T12:47:47.565Z,98191.32
2017-11-08T12:50:15.836Z,98188.84
2017-11-08T12:52:44.863Z,98182.53
2017-11-08T12:55:13.123Z,98181.16
2017-11-08T12:57:46.301Z,98180.84
2017-11-08T13:00:14.565Z,98181.41
2017-11-08T13:02:42.848Z,98187.28
2017-11-08T13:05:11.111Z,98187.79
2017-11-08T13:07:39.374Z,98191.23
2017-11-08T13:10:07.624Z,98198.02
2017-11-08T13:12:36.648Z,98193.96
2017-11-08T13:15:04.893Z,98195.16
2017-11-08T13:17:33.902Z,98198.92
2017-11-08T13:20:02.143Z,98200.13
2017-11-08T13:22:30.391Z,98211.23
2017-11-08T13:24:58.629Z,98209.46
2017-11-08T13:27:26.877Z,98218.36
2017-11-08T13:29:55.893Z,98218.00
2017-11-08T13:32:24.903Z,98227.32
2017-11-08T13:34:53.139Z,98229.10
2017-11-08T13:37:22.155Z,98226.48
2017-11-08T13:39:51.126Z,98220.61
2017-11-08T13:42:21.034Z,98222.36
2017-11-08T13:44:49.290Z,98224.05
2017-11-08T13:47:19.197Z,98226.31
2017-11-08T13:49:47.477Z,98224.15
2017-11-08T13:52:15.741Z,98234.09
2017-11-08T13:54:44.002Z,98238.81
2017-11-08T13:57:12.263Z,98234.14
2017-11-08T13:59:40.516Z,98231.67
2017-11-08T14:02:08.806Z,98228.21
2017-11-08T14:04:37.083Z,98228.16
2017-11-08T14:07:05.339Z,98220.52
2017-11-08T14:09:34.374Z,98225.19
2017-11-08T14:12:02.628Z,98222.75
2017-11-08T14:14:30.872Z,98217.55
2017-11-08T14:16:59.120Z,98224.98
2017-11-08T14:19:27.365Z,98222.98
2017-11-08T14:21:55.626Z,98228.52
2017-11-08T14:24:23.866Z,98229.38
2017-11-08T14:26:52.119Z,98234.56
2017-11-08T14:29:21.282Z,98240.58
2017-11-08T14:31:49.530Z,98251.95
2017-11-08T14:34:18.551Z,98248.08
2017-11-08T14:36:49.579Z,98244.67
2017-11-08T14:39:18.594Z,98253.59
2017-11-08T14:41:50.679Z,98254.94
2017-11-08T14:44:18.934Z,98255.30
2017-11-08T14:46:47.171Z,98252.80
2017-11-08T14:49:15.415Z,98253.54
2017-11-08T14:51:43.656Z,98259.02
2017-11-08T14:54:13.683Z,98257.78
2017-11-08T14:56:41.952Z,98258.95
2017-11-08T14:59:10.963Z,98266.60
2017-11-08T15:01:39.201Z,98269.16
2017-11-08T15:04:08.206Z,98268.22
2017-11-08T15:06:36.459Z,98268.73
2017-11-08T15:09:05.461Z,98264.97
2017-11-08T15:11:36.257Z,98261.09
2017-11-08T15:14:05.284Z,98265.69
2017-11-08T15:16:34.299Z,98261.44
2017-11-08T15:19:02.540Z,98262.80
2017-11-08T15:21:30.795Z,98268.52
2017-11-08T15:23:59.031Z,98271.55
2017-11-08T15:26:27.278Z,98274.94
2017-11-08T15:28:56.284Z,98280.95
2017-11-08T15:33:54.886Z,98280.09
2017-11-08T15:36:23.139Z,98282.70
2017-11-08T15:38:52.158Z,98285.96
2017-11-08T15:41:20.398Z,98284.27
2017-11-08T15:43:48.663Z,98285.83
2017-11-08T15:46:16.905Z,98290.75
2017-11-08T15:48:45.155Z,98288.72
2017-11-08T15:51:14.164Z,98290.44
2017-11-08T15:53:42.429Z,98291.25
2017-11-08T15:56:10.678Z,98293.23
2017-11-08T15:58:39.682Z,98288.16
2017-11-08T16:01:08.702Z,98292.62
2017-11-08T16:03:36.949Z,98294.86
2017-11-08T16:06:05.959Z,98290.65
2017-11-08T16:08:34.208Z,98295.31
2017-11-08T16:11:02.451Z,98292.95
2017-11-08T16:13:31.456Z,98287.31
2017-11-08T16:15:59.710Z,98285.66
2017-11-08T16:18:27.950Z,98291.05
2017-11-08T16:20:56.199Z,98289.70
2017-11-08T16:23:24.442Z,98293.14
2017-11-08T16:25:52.691Z,98297.41
2017-11-08T16:28:20.926Z,98301.77
2017-11-08T16:30:50.145Z,98305.95
2017-11-08T16:33:19.155Z,98302.70
2017-11-08T16:35:47.413Z,98311.77
2017-11-08T16:38:15.655Z,98309.70
2017-11-08T16:40:43.892Z,98309.61
2017-11-08T16:43:12.142Z,98316.85
2017-11-08T16:45:40.380Z,98322.06
2017-11-08T16:48:08.626Z,98319.75
2017-11-08T16:50:36.871Z,98328.28
2017-11-08T16:53:05.114Z,98326.23
2017-11-08T16:55:33.355Z,98325.95
2017-11-08T16:58:01.616Z,98325.52
2017-11-08T17:00:29.849Z,98327.98
2017-11-08T17:02:58.871Z,98329.33
2017-11-08T17:05:27.112Z,98325.73
2017-11-08T17:07:55.367Z,98324.85
2017-11-08T17:10:23.606Z,98328.25
2017-11-08T17:12:51.847Z,98328.33
2017-11-08T17:15:20.861Z,98330.95
2017-11-08T17:17:49.114Z,98325.64
2017-11-08T17:20:18.126Z,98323.60
2017-11-08T17:22:46.376Z,98331.22
2017-11-08T17:25:15.397Z,98334.69
2017-11-08T17:27:43.638Z,98335.90
2017-11-08T17:30:11.883Z,98345.13
2017-11-08T17:32:40.131Z,98351.92
2017-11-08T17:35:08.385Z,98348.09
2017-11-08T17:37:37.387Z,98354.09
2017-11-08T17:40:05.634Z,98353.66
2017-11-08T17:42:34.658Z,98355.73
2017-11-08T17:45:02.890Z,98357.91
2017-11-08T17:47:31.135Z,98355.39
2017-11-08T17:49:59.371Z,98360.05
2017-11-08T17:52:28.397Z,98365.20
2017-11-08T17:54:56.630Z,98369.84
2017-11-08T17:57:25.643Z,98371.11
2017-11-08T17:59:53.887Z,98366.80
2017-11-08T18:02:22.141Z,98365.48
2017-11-08T18:04:50.378Z,98364.18
2017-11-08T18:07:18.619Z,98364.97
2017-11-08T18:09:47.633Z,98367.13
2017-11-08T18:12:15.880Z,98367.57
2017-11-08T18:14:44.125Z,98365.03
2017-11-08T18:17:12.366Z,98368.41
2017-11-08T18:19:40.624Z,98368.84
2017-11-08T18:22:09.634Z,98370.13
2017-11-08T18:24:37.881Z,98369.25
2017-11-08T18:27:06.891Z,98367.15
2017-11-08T18:29:35.902Z,98370.99
2017-11-08T18:32:04.146Z,98370.56
2017-11-08T18:34:33.173Z,98370.55
2017-11-08T18:37:01.410Z,98377.41
2017-11-08T18:39:30.422Z,98377.05
2017-11-08T18:41:58.674Z,98387.05
2017-11-08T18:44:26.918Z,98378.44
2017-11-08T18:46:55.167Z,98383.61
2017-11-08T18:49:23.408Z,98383.61
2017-11-08T18:51:52.420Z,98387.83
2017-11-08T18:54:20.663Z,98394.00
2017-11-08T18:56:48.907Z,98393.23
2017-11-08T18:59:17.151Z,98393.45
2017-11-08T19:01:45.394Z,98395.52
2017-11-08T19:04:14.407Z,98397.08
2017-11-08T19:06:42.650Z,98396.23
2017-11-08T19:09:10.897Z,98401.70
2017-11-08T19:11:39.133Z,98401.03
2017-11-08T19:14:07.382Z,98403.22
2017-11-08T19:16:35.622Z,98404.84
2017-11-08T19:19:03.875Z,98404.12
2017-11-08T19:21:32.123Z,98405.01
2017-11-08T19:24:01.151Z,98409.52
2017-11-08T19:26:29.394Z,98411.22
2017-11-08T19:28:58.404Z,98413.83
2017-11-08T19:31:26.656Z,98415.37
2017-11-08T19:33:55.671Z,98414.02
2017-11-08T19:36:23.933Z,98412.38
2017-11-08T19:38:52.935Z,98419.52
2017-11-08T19:41:21.197Z,98422.13
2017-11-08T19:43:50.190Z,98426.72
2017-11-08T19:46:19.208Z,98425.09
2017-11-08T19:48:47.467Z,98423.47
2017-11-08T19:51:16.472Z,98429.83
2017-11-08T19:53:44.759Z,98426.86
2017-11-08T19:56:14.542Z,98420.80
2017-11-08T19:58:42.857Z,98422.90
2017-11-08T20:01:11.140Z,98425.03
2017-11-08T20:03:39.414Z,98428.58
2017-11-08T20:06:07.677Z,98432.05
2017-11-08T20:08:35.952Z,98441.83
2017-11-08T20:11:04.270Z,98438.87
2017-11-08T20:13:32.783Z,98441.22
2017-11-08T20:16:01.127Z,98438.80
2017-11-08T20:18:29.478Z,98446.16
2017-11-08T20:21:22.553Z,98441.88
2017-11-08T21:06:34.456Z,98458.12
2017-11-08T21:09:14.397Z,98458.22
2017-11-08T21:11:44.552Z,98457.77
2017-11-08T21:14:12.917Z,98459.72
2017-11-08T21:16:41.957Z,98455.30
2017-11-08T21:19:27.569Z,98450.30
2017-11-08T21:21:56.625Z,98452.45
2017-11-08T21:24:24.909Z,98457.58
2017-11-08T21:26:56.276Z,98447.01
2017-11-08T21:29:26.885Z,98455.49
2017-11-08T21:31:55.245Z,98456.52
2017-11-08T21:34:23.555Z,98457.12
2017-11-08T21:36:51.862Z,98458.34
2017-11-08T21:39:20.915Z,98458.00
2017-11-08T21:41:49.343Z,98461.08
2017-11-08T21:44:18.378Z,98461.48
2017-11-08T21:46:47.433Z,98464.20
2017-11-08T21:49:16.460Z,98463.39
2017-11-08T21:51:44.724Z,98467.88
2017-11-08T21:54:13.000Z,98468.71
2017-11-08T21:56:41.344Z,98462.45
2017-11-08T21:59:11.661Z,98467.52
2017-11-08T22:01:39.993Z,98469.24
2017-11-08T22:04:09.989Z,98468.45
2017-11-08T22:06:38.286Z,98468.45
2017-11-08T22:09:06.635Z,98471.66
2017-11-08T22:11:34.964Z,98475.81
2017-11-08T22:14:03.260Z,98476.19
2017-11-08T22:16:32.291Z,98486.48
2017-11-08T22:19:00.533Z,98484.19
2017-11-08T22:21:29.558Z,98490.78
2017-11-08T22:23:57.802Z,98486.48
2017-11-08T22:26:26.822Z,98485.92
2017-11-08T22:28:55.070Z,98488.69
2017-11-08T22:31:23.314Z,98486.88
2017-11-08T22:33:51.559Z,98489.86
2017-11-08T22:36:19.821Z,98488.52
2017-11-08T22:38:48.077Z,98488.48
2017-11-08T22:41:17.096Z,98500.02
2017-11-08T22:43:45.343Z,98495.61
2017-11-08T22:46:14.345Z,98495.69
2017-11-08T22:48:43.363Z,98491.47
2017-11-08T22:51:11.615Z,98493.92
2017-11-08T22:53:39.880Z,98500.22
2017-11-08T22:56:08.909Z,98498.96
2017-11-08T22:58:37.164Z,98494.63
2017-11-08T23:01:05.412Z,98491.90
2017-11-08T23:03:33.668Z,98489.15
2017-11-08T23:06:02.069Z,98488.73
2017-11-08T23:08:30.571Z,98489.78
2017-11-08T23:10:58.836Z,98497.43
2017-11-08T23:13:27.851Z,98497.06
2017-11-08T23:15:56.107Z,98491.16
2017-11-08T23:18:25.119Z,98492.95
2017-11-08T23:20:53.379Z,98485.44
2017-11-08T23:23:22.394Z,98495.55
2017-11-08T23:25:53.458Z,98487.05
2017-11-08T23:28:21.706Z,98486.79
2017-11-08T23:30:49.961Z,98494.23
2017-11-08T23:33:18.976Z,98490.38
2017-11-08T23:35:47.249Z,98492.95
2017-11-08T23:38:16.237Z,98493.72
2017-11-08T23:40:44.485Z,98499.32
2017-11-08T23:43:12.728Z,98494.94
2017-11-08T23:45:40.981Z,98492.30
2017-11-08T23:48:09.223Z,98497.00
2017-11-08T23:50:40.143Z,98496.47
2017-11-08T23:53:11.363Z,98499.61
2017-11-08T23:55:39.630Z,98503.03
2017-11-08T23:58:07.870Z,98502.56
